PIA457 CYYZ-OPIS
Flight info
| Callsign | PIA457 |
|---|---|
| Flight time | N/A |
| Altitude | 33000 |
| Route | SEDOG6 BOBSU DCT MT DCT LOMTA/M084F330 DCT RADUN DCT 63N050W 66N040W/M083F350 68N030W 70N020W 71N010W 71N000E/N0493F350 DCT ORTEN DCT KELEK/K0917F350 L93 SOGTO/K0917F370 L93 OKAMO L991 MULTA M199 RESDO/K0889F390 M199 INKUM L162 ODIVA Z407 LAPZE T186 INDUD M875 AMDAR/N0480F390 M875 TAPIS L509 HANGU J165 NONIB DCT KALMI |
| Aircraft | B77L/H-SDE1E2E3FGHIJ2J3J4J5M1RWXY/LB1D1 |
Departure
| Time | N/A |
|---|---|
| Airport | Toronto Pearson International Airport (CYYZ) |
Arrival
| Time | 2026-04-25 09:37 |
|---|---|
| Airport | Islamabad International Airport (OPIS) |
| Time | Latitude | Longitude | Altitude | Speed | Heading |
|---|---|---|---|---|---|
| 2026-04-25 08:26 | 41.22196 | 64.90621 | 38993 ft | 491 kts | 162° |
| 2026-04-25 08:27 | 41.19027 | 64.92307 | 38987 ft | 491 kts | 162° |
| 2026-04-25 08:27 | 41.12694 | 64.95667 | 38995 ft | 490 kts | 162° |
| 2026-04-25 08:28 | 41.06355 | 64.99023 | 38988 ft | 490 kts | 162° |
| 2026-04-25 08:28 | 41.00017 | 65.02373 | 38987 ft | 490 kts | 162° |
| 2026-04-25 08:29 | 40.93686 | 65.05715 | 38987 ft | 490 kts | 162° |
| 2026-04-25 08:29 | 40.87356 | 65.09048 | 38990 ft | 490 kts | 162° |
| 2026-04-25 08:30 | 40.81025 | 65.12377 | 38985 ft | 489 kts | 162° |
| 2026-04-25 08:30 | 40.74749 | 65.15675 | 38997 ft | 489 kts | 162° |
| 2026-04-25 08:31 | 40.68435 | 65.18987 | 39004 ft | 489 kts | 162° |
| 2026-04-25 08:31 | 40.62107 | 65.22300 | 39001 ft | 489 kts | 162° |
| 2026-04-25 08:32 | 40.55785 | 65.25602 | 39014 ft | 489 kts | 162° |
| 2026-04-25 08:32 | 40.49467 | 65.28902 | 39015 ft | 489 kts | 162° |
| 2026-04-25 08:33 | 40.43140 | 65.32208 | 39023 ft | 489 kts | 162° |
| 2026-04-25 08:33 | 40.36814 | 65.35507 | 39019 ft | 489 kts | 162° |
| 2026-04-25 08:34 | 40.30483 | 65.38802 | 39012 ft | 489 kts | 162° |
| 2026-04-25 08:34 | 40.24151 | 65.42090 | 39021 ft | 489 kts | 162° |
| 2026-04-25 08:35 | 40.17821 | 65.45370 | 39021 ft | 489 kts | 162° |
| 2026-04-25 08:35 | 40.11485 | 65.48648 | 39009 ft | 489 kts | 162° |
| 2026-04-25 08:36 | 40.05159 | 65.51913 | 39025 ft | 489 kts | 162° |
| 2026-04-25 08:36 | 39.98825 | 65.55162 | 39029 ft | 489 kts | 162° |
| 2026-04-25 08:37 | 39.92485 | 65.58399 | 39014 ft | 489 kts | 162° |
| 2026-04-25 08:37 | 39.86152 | 65.61630 | 39038 ft | 489 kts | 162° |
| 2026-04-25 08:38 | 39.79813 | 65.64860 | 39029 ft | 489 kts | 162° |
| 2026-04-25 08:38 | 39.73468 | 65.68084 | 39018 ft | 490 kts | 162° |
| 2026-04-25 08:39 | 39.67123 | 65.71299 | 39023 ft | 489 kts | 162° |
| 2026-04-25 08:39 | 39.60778 | 65.74509 | 39025 ft | 489 kts | 162° |
| 2026-04-25 08:40 | 39.54478 | 65.77692 | 39013 ft | 489 kts | 163° |
| 2026-04-25 08:40 | 39.48132 | 65.80891 | 39016 ft | 489 kts | 163° |
| 2026-04-25 08:41 | 39.41784 | 65.84086 | 39015 ft | 490 kts | 163° |
| 2026-04-25 08:41 | 39.35436 | 65.87275 | 39011 ft | 490 kts | 163° |
| 2026-04-25 08:42 | 39.29077 | 65.90461 | 39017 ft | 490 kts | 163° |
| 2026-04-25 08:42 | 39.22715 | 65.93640 | 39023 ft | 491 kts | 163° |
| 2026-04-25 08:43 | 39.16345 | 65.96819 | 39008 ft | 491 kts | 163° |
| 2026-04-25 08:43 | 39.09972 | 65.99993 | 39021 ft | 491 kts | 163° |
| 2026-04-25 08:44 | 39.03594 | 66.03165 | 39021 ft | 491 kts | 163° |
| 2026-04-25 08:44 | 38.97213 | 66.06332 | 39012 ft | 492 kts | 164° |
| 2026-04-25 08:45 | 38.90827 | 66.09495 | 39019 ft | 492 kts | 164° |
| 2026-04-25 08:45 | 38.84427 | 66.12659 | 39020 ft | 493 kts | 164° |
| 2026-04-25 08:46 | 38.78022 | 66.15820 | 39022 ft | 494 kts | 164° |
| 2026-04-25 08:46 | 38.71607 | 66.18980 | 39033 ft | 494 kts | 164° |
| 2026-04-25 08:47 | 38.65216 | 66.22122 | 39035 ft | 495 kts | 164° |
| 2026-04-25 08:47 | 38.58958 | 66.25927 | 39062 ft | 503 kts | 153° |
| 2026-04-25 08:48 | 38.53048 | 66.30756 | 39045 ft | 504 kts | 152° |
| 2026-04-25 08:48 | 38.47152 | 66.35596 | 39046 ft | 504 kts | 152° |
| 2026-04-25 08:49 | 38.41238 | 66.40379 | 39060 ft | 502 kts | 153° |
| 2026-04-25 08:49 | 38.35319 | 66.45126 | 39065 ft | 503 kts | 153° |
| 2026-04-25 08:50 | 38.29397 | 66.49867 | 39081 ft | 503 kts | 153° |
| 2026-04-25 08:50 | 38.23467 | 66.54608 | 39080 ft | 504 kts | 153° |
| 2026-04-25 08:51 | 38.17525 | 66.59351 | 39101 ft | 504 kts | 153° |
| 2026-04-25 08:51 | 38.11576 | 66.64089 | 39113 ft | 504 kts | 153° |
| 2026-04-25 08:52 | 38.05629 | 66.68821 | 39103 ft | 505 kts | 153° |
| 2026-04-25 08:52 | 37.99671 | 66.73542 | 39107 ft | 505 kts | 153° |
| 2026-04-25 08:53 | 37.93686 | 66.78209 | 39118 ft | 505 kts | 153° |
| 2026-04-25 08:53 | 37.87729 | 66.82821 | 39083 ft | 505 kts | 154° |
| 2026-04-25 08:54 | 37.81727 | 66.87479 | 39084 ft | 507 kts | 154° |
| 2026-04-25 08:54 | 37.75704 | 66.92148 | 39081 ft | 509 kts | 154° |
| 2026-04-25 08:55 | 37.69663 | 66.96822 | 39044 ft | 510 kts | 154° |
| 2026-04-25 08:55 | 37.63606 | 67.01498 | 39051 ft | 510 kts | 154° |
| 2026-04-25 08:56 | 37.57544 | 67.06170 | 39038 ft | 511 kts | 154° |
| 2026-04-25 08:56 | 37.51478 | 67.10836 | 39038 ft | 511 kts | 154° |
| 2026-04-25 08:57 | 37.45398 | 67.15503 | 39022 ft | 512 kts | 154° |
| 2026-04-25 08:57 | 37.39313 | 67.20166 | 39024 ft | 512 kts | 154° |
| 2026-04-25 08:58 | 37.33225 | 67.24822 | 39032 ft | 512 kts | 154° |
| 2026-04-25 08:58 | 37.28163 | 67.28687 | 39009 ft | 512 kts | 154° |
| 2026-04-25 08:59 | 37.22076 | 67.33327 | 39020 ft | 512 kts | 154° |
| 2026-04-25 08:59 | 37.15942 | 67.37820 | 39022 ft | 510 kts | 156° |
| 2026-04-25 09:00 | 37.09724 | 67.42073 | 39012 ft | 509 kts | 157° |
| 2026-04-25 09:00 | 37.03506 | 67.46328 | 39027 ft | 509 kts | 157° |
| 2026-04-25 09:01 | 36.97301 | 67.50621 | 39031 ft | 510 kts | 156° |
| 2026-04-25 09:01 | 36.91091 | 67.54924 | 39022 ft | 510 kts | 156° |
| 2026-04-25 09:02 | 36.84884 | 67.59216 | 39049 ft | 510 kts | 157° |
| 2026-04-25 09:02 | 36.78668 | 67.63502 | 39049 ft | 510 kts | 157° |
| 2026-04-25 09:03 | 36.72496 | 67.67751 | 39056 ft | 510 kts | 157° |
| 2026-04-25 09:03 | 36.66281 | 67.72029 | 39065 ft | 511 kts | 156° |
| 2026-04-25 09:04 | 36.60056 | 67.76320 | 39060 ft | 512 kts | 156° |
| 2026-04-25 09:04 | 36.53810 | 67.80635 | 39022 ft | 516 kts | 156° |
| 2026-04-25 09:05 | 36.47541 | 67.84925 | 39029 ft | 513 kts | 157° |
| 2026-04-25 09:05 | 36.41302 | 67.89197 | 39062 ft | 511 kts | 157° |
| 2026-04-25 09:06 | 36.35087 | 67.93446 | 39085 ft | 510 kts | 157° |
| 2026-04-25 09:06 | 36.28870 | 67.97689 | 39060 ft | 509 kts | 157° |
| 2026-04-25 09:07 | 36.22670 | 68.01915 | 39077 ft | 508 kts | 157° |
| 2026-04-25 09:07 | 36.16469 | 68.06126 | 39098 ft | 509 kts | 157° |
| 2026-04-25 09:08 | 36.10261 | 68.10336 | 39099 ft | 510 kts | 157° |
| 2026-04-25 09:08 | 36.04043 | 68.14563 | 39137 ft | 510 kts | 157° |
| 2026-04-25 09:09 | 35.97812 | 68.18781 | 39144 ft | 511 kts | 157° |
| 2026-04-25 09:09 | 35.91574 | 68.22991 | 39123 ft | 512 kts | 157° |
| 2026-04-25 09:10 | 35.85325 | 68.27202 | 39159 ft | 512 kts | 157° |
| 2026-04-25 09:10 | 35.79071 | 68.31417 | 39172 ft | 511 kts | 157° |
| 2026-04-25 09:11 | 35.69759 | 68.37663 | 39115 ft | 507 kts | 157° |
| 2026-04-25 09:11 | 35.63585 | 68.41799 | 39143 ft | 504 kts | 157° |
| 2026-04-25 09:12 | 35.57428 | 68.45916 | 39167 ft | 504 kts | 157° |
| 2026-04-25 09:12 | 35.51246 | 68.50008 | 39189 ft | 505 kts | 157° |
| 2026-04-25 09:13 | 35.45089 | 68.54071 | 39201 ft | 507 kts | 158° |
| 2026-04-25 09:13 | 35.38868 | 68.58175 | 39199 ft | 508 kts | 158° |
| 2026-04-25 09:14 | 35.32631 | 68.62287 | 39231 ft | 511 kts | 157° |
| 2026-04-25 09:14 | 35.26339 | 68.66421 | 39192 ft | 514 kts | 157° |
| 2026-04-25 09:15 | 35.00650 | 68.83247 | 39133 ft | 507 kts | 158° |
| 2026-04-25 09:15 | 34.54321 | 69.13396 | 39149 ft | 505 kts | 154° |
| 2026-04-25 09:16 | 34.39330 | 69.43599 | 39243 ft | 539 kts | 112° |
| 2026-04-25 09:16 | 34.25912 | 69.75198 | 38943 ft | 526 kts | 122° |
| 2026-04-25 09:16 | 33.98815 | 70.37494 | 39063 ft | 529 kts | 121° |
| 2026-04-25 09:17 | 33.60061 | 70.87691 | 39125 ft | 523 kts | 141° |
| 2026-04-25 09:17 | 33.43937 | 71.16529 | 37408 ft | 536 kts | 95° |
| 2026-04-25 09:17 | 33.53469 | 71.47230 | 32418 ft | 500 kts | 68° |
| 2026-04-25 09:18 | 33.53049 | 71.80383 | 26157 ft | 461 kts | 82° |
| 2026-04-25 09:18 | 33.55073 | 72.08832 | 19450 ft | 434 kts | 89° |
| 2026-04-25 09:18 | 33.54732 | 72.36809 | 14781 ft | 363 kts | 90° |
| 2026-04-25 09:18 | 33.48807 | 72.57990 | 10001 ft | 353 kts | 111° |
| 2026-04-25 09:19 | 33.46647 | 72.73783 | 7238 ft | 353 kts | 97° |
| 2026-04-25 09:19 | 33.46323 | 72.76648 | 7027 ft | 341 kts | 98° |
| 2026-04-25 09:19 | 33.45972 | 72.79406 | 6835 ft | 329 kts | 99° |
| 2026-04-25 09:19 | 33.45612 | 72.82059 | 6641 ft | 317 kts | 99° |
| 2026-04-25 09:20 | 33.45256 | 72.84608 | 6447 ft | 305 kts | 99° |
| 2026-04-25 09:20 | 33.44907 | 72.87068 | 6255 ft | 294 kts | 99° |
| 2026-04-25 09:20 | 33.44570 | 72.89433 | 6064 ft | 283 kts | 99° |
| 2026-04-25 09:20 | 33.44241 | 72.91760 | 5952 ft | 287 kts | 99° |
| 2026-04-25 09:21 | 33.43898 | 72.94130 | 5981 ft | 289 kts | 99° |
| 2026-04-25 09:21 | 33.43559 | 72.96484 | 5973 ft | 284 kts | 100° |
| 2026-04-25 09:21 | 33.43226 | 72.98791 | 5969 ft | 279 kts | 101° |
| 2026-04-25 09:21 | 33.42896 | 73.01079 | 5976 ft | 279 kts | 101° |
| 2026-04-25 09:22 | 33.42635 | 73.03323 | 5952 ft | 264 kts | 90° |
| 2026-04-25 09:22 | 33.43105 | 73.05369 | 5967 ft | 253 kts | 58° |
| 2026-04-25 09:22 | 33.44315 | 73.06863 | 5965 ft | 251 kts | 32° |
| 2026-04-25 09:22 | 33.45934 | 73.07643 | 5808 ft | 256 kts | 9° |
| 2026-04-25 09:23 | 33.47710 | 73.07590 | 5520 ft | 256 kts | 346° |
| 2026-04-25 09:23 | 33.49268 | 73.06753 | 5234 ft | 245 kts | 318° |
| 2026-04-25 09:23 | 33.50444 | 73.05362 | 5002 ft | 234 kts | 313° |
| 2026-04-25 09:23 | 33.51379 | 73.03848 | 4723 ft | 222 kts | 289° |
| 2026-04-25 09:24 | 33.51737 | 73.02117 | 4548 ft | 208 kts | 280° |
| 2026-04-25 09:24 | 33.52015 | 73.00446 | 4316 ft | 199 kts | 281° |
| 2026-04-25 09:24 | 33.52267 | 72.98856 | 4029 ft | 189 kts | 281° |
| 2026-04-25 09:24 | 33.52499 | 72.97360 | 3823 ft | 175 kts | 282° |
| 2026-04-25 09:25 | 33.52713 | 72.95991 | 3616 ft | 160 kts | 282° |
| 2026-04-25 09:25 | 33.52902 | 72.94762 | 3400 ft | 139 kts | 285° |
| 2026-04-25 09:25 | 33.53079 | 72.93640 | 3252 ft | 137 kts | 285° |
| 2026-04-25 09:25 | 33.53255 | 72.92524 | 3087 ft | 139 kts | 283° |
| 2026-04-25 09:26 | 33.53431 | 72.91393 | 2921 ft | 146 kts | 282° |
| 2026-04-25 09:26 | 33.53622 | 72.90161 | 2730 ft | 139 kts | 285° |
| 2026-04-25 09:26 | 33.53791 | 72.89068 | 2519 ft | 130 kts | 285° |
| 2026-04-25 09:26 | 33.53963 | 72.87990 | 2392 ft | 142 kts | 282° |
| 2026-04-25 09:27 | 33.54146 | 72.86810 | 2214 ft | 143 kts | 284° |
| 2026-04-25 09:27 | 33.54331 | 72.85655 | 2005 ft | 139 kts | 282° |
| 2026-04-25 09:27 | 33.54504 | 72.84500 | 1820 ft | 142 kts | 282° |
| 2026-04-25 09:27 | 33.54683 | 72.83380 | 1772 ft | 127 kts | 280° |
| 2026-04-25 09:28 | 33.54839 | 72.82358 | 1950 ft | 138 kts | 282° |
| 2026-04-25 09:28 | 33.55054 | 72.81195 | 2962 ft | 146 kts | 287° |
| 2026-04-25 09:28 | 33.55322 | 72.79892 | 3920 ft | 175 kts | 286° |
| 2026-04-25 09:28 | 33.55622 | 72.78305 | 4464 ft | 226 kts | 279° |
| 2026-04-25 09:29 | 33.55914 | 72.76480 | 4609 ft | 211 kts | 285° |
| 2026-04-25 09:29 | 33.56324 | 72.74811 | 5032 ft | 219 kts | 287° |
| 2026-04-25 09:29 | 33.56806 | 72.72926 | 5806 ft | 255 kts | 287° |
| 2026-04-25 09:29 | 33.57277 | 72.70789 | 6146 ft | 274 kts | 276° |
| 2026-04-25 09:30 | 33.57080 | 72.68511 | 6084 ft | 278 kts | 249° |
| 2026-04-25 09:30 | 33.56028 | 72.66589 | 6031 ft | 278 kts | 222° |
| 2026-04-25 09:30 | 33.53285 | 72.65259 | 5996 ft | 280 kts | 181° |
| 2026-04-25 09:30 | 33.49875 | 72.67195 | 5986 ft | 282 kts | 128° |
| 2026-04-25 09:31 | 33.47916 | 72.75569 | 6026 ft | 282 kts | 101° |
| 2026-04-25 09:31 | 33.46855 | 72.81744 | 6047 ft | 290 kts | 101° |
| 2026-04-25 09:31 | 33.44654 | 72.94178 | 5963 ft | 282 kts | 102° |
| 2026-04-25 09:31 | 33.43250 | 73.03198 | 5882 ft | 270 kts | 82° |
| 2026-04-25 09:32 | 33.46636 | 73.07146 | 5978 ft | 281 kts | 7° |
| 2026-04-25 09:32 | 33.48587 | 73.06923 | 5924 ft | 286 kts | 338° |
| 2026-04-25 09:32 | 33.50243 | 73.05629 | 5741 ft | 276 kts | 317° |
| 2026-04-25 09:32 | 33.51403 | 73.03898 | 5095 ft | 269 kts | 291° |
| 2026-04-25 09:33 | 33.51829 | 73.01789 | 4567 ft | 257 kts | 278° |
| 2026-04-25 09:33 | 33.52121 | 72.99740 | 4249 ft | 244 kts | 280° |
| 2026-04-25 09:33 | 33.52423 | 72.97802 | 4062 ft | 233 kts | 282° |
| 2026-04-25 09:33 | 33.52714 | 72.95943 | 3860 ft | 217 kts | 281° |
| 2026-04-25 09:34 | 33.52976 | 72.94253 | 3319 ft | 198 kts | 285° |
| 2026-04-25 09:34 | 33.53208 | 72.92789 | 3096 ft | 159 kts | 286° |
| 2026-04-25 09:34 | 33.53398 | 72.91590 | 2912 ft | 141 kts | 284° |
| 2026-04-25 09:34 | 33.53584 | 72.90464 | 2765 ft | 138 kts | 284° |
| 2026-04-25 09:35 | 33.53694 | 72.89711 | 2666 ft | 132 kts | 286° |
| 2026-04-25 09:35 | 33.53742 | 72.89392 | 2612 ft | 130 kts | 287° |
| 2026-04-25 09:35 | 33.53904 | 72.88348 | 2421 ft | 124 kts | 287° |
| 2026-04-25 09:35 | 33.54074 | 72.87270 | 2277 ft | 139 kts | 283° |
| 2026-04-25 09:36 | 33.54248 | 72.86134 | 2083 ft | 139 kts | 283° |
| 2026-04-25 09:36 | 33.54423 | 72.85020 | 1879 ft | 134 kts | 282° |
| 2026-04-25 09:36 | 33.54594 | 72.83906 | 1775 ft | 134 kts | 284° |
| 2026-04-25 09:36 | 33.54746 | 72.82945 | 1768 ft | 100 kts | 280° |
| 2026-04-25 09:37 | 33.54852 | 72.82274 | 1766 ft | 64 kts | 280° |
| 2026-04-25 09:37 | 33.54925 | 72.81858 | 1767 ft | 46 kts | 288° |
| 2026-04-25 09:37 | 33.55062 | 72.81614 | 1770 ft | 29 kts | 313° |
| 2026-04-25 09:37 | 33.55205 | 72.81602 | 1766 ft | 22 kts | 12° |
| 2026-04-25 09:38 | 33.55320 | 72.81646 | 1775 ft | 9 kts | 53° |
| 2026-04-25 09:38 | 33.55331 | 72.81718 | 1772 ft | 9 kts | 85° |
| 2026-04-25 09:38 | 33.55313 | 72.81823 | 1774 ft | 26 kts | 103° |
| 2026-04-25 09:38 | 33.55274 | 72.82080 | 1775 ft | 36 kts | 100° |
| 2026-04-25 09:39 | 33.55222 | 72.82404 | 1776 ft | 40 kts | 99° |
| 2026-04-25 09:39 | 33.55174 | 72.82731 | 1774 ft | 39 kts | 99° |
| 2026-04-25 09:39 | 33.55208 | 72.83032 | 1778 ft | 37 kts | 55° |
| 2026-04-25 09:40 | 33.55365 | 72.83119 | 1777 ft | 0 kts | 324° |